Sds Green — ICOK — position and weather

sailwx.info

Track history (hours):
 
Tides and Currents Weather Stations Pressure Air Temp Water Temp Dewpoint Dewpoint Depression Visibility Wind Speed Wind Dir Waves Ship Positions

Sds Green

Last reported at 2015-Sep-04 01:33 UTC. Time now 2015-Sep-05 07:54 UTC.
Position N 41°09' E 002°19'.

Length 108 m; draft 7.3 m.

Type: Cargo ship. MMSI: 247292200.

Date/timePositionNaut miles runAvg speedWind from/ knotsBaromVisibWave heightAir tempDewpointWater temp
2015-Sep-04 01:33N 41°09' E 002°19'1110.9
2015-Sep-04 00:33N 41°01' E 002°28'1110.6
2015-Sep-03 23:33N 40°52' E 002°37'1010.3
2015-Sep-03 22:33N 40°45' E 002°46'1010.4
2015-Sep-03 21:33N 40°37' E 002°55'1110.7
2015-Sep-03 20:33N 40°28' E 003°04'1110.8
2015-Sep-03 19:33N 40°20' E 003°13'3210.8
2015-Sep-03 16:33N 39°55' E 003°40'1210.8
2015-Sep-03 15:27N 39°48' E 003°53'1011.1
2015-Sep-03 14:31N 39°46' E 004°05'20110.9
2015-Sep-02 20:04N 38°50' E 008°16'6 9.5
2015-Sep-02 19:24N 38°48' E 008°23'8 9.7
2015-Sep-02 18:33N 38°47' E 008°34'10 9.8
2015-Sep-02 17:33N 38°45' E 008°46'1010.2
2015-Sep-02 16:33N 38°44' E 008°59'1010.2
2015-Sep-02 15:33N 38°43' E 009°12'1410.4
2015-Sep-02 14:10N 38°40' E 009°30'710.7
2015-Sep-02 13:33N 38°40' E 009°39'1110.8
2015-Sep-02 12:30N 38°38' E 009°53'1010.7
2015-Sep-02 11:33N 38°37' E 010°06'1110.7
2015-Sep-02 10:33N 38°36' E 010°20'1111.0
2015-Sep-02 09:33N 38°34' E 010°33'1111.0
2015-Sep-02 08:33N 38°33' E 010°47'1111.0
2015-Sep-02 07:33N 38°31' E 011°01'1111.1
2015-Sep-02 06:33N 38°30' E 011°15'1111.3
2015-Sep-02 05:33N 38°28' E 011°30'1311.3
2015-Sep-02 04:23N 38°27' E 011°46'3711.1
2015-Sep-02 01:03N 38°22' E 012°33'511.1
2015-Sep-02 00:33N 38°21' E 012°40'1111.1
2015-Sep-01 23:33N 38°19' E 012°54'1111.4
2015-Sep-01 22:33N 38°18' E 013°09'1111.4
2015-Sep-01 21:33N 38°17' E 013°23'1111.2
2015-Sep-01 20:33N 38°18' E 013°37'4611.2
2015-Sep-01 16:23N 38°17' E 014°37'1011.7
2015-Sep-01 15:33N 38°17' E 014°49'1211.6
2015-Sep-01 14:33N 38°17' E 015°04'1211.6
2015-Sep-01 13:33N 38°19' E 015°18'1111.0
2015-Sep-01 12:33N 38°20' E 015°32'8 7.9
2015-Sep-01 11:33N 38°15' E 015°40'8 8.2
2015-Sep-01 10:33N 38°08' E 015°36'1111.0
2015-Sep-01 09:33N 37°57' E 015°38'1211.0
2015-Sep-01 08:28N 37°52' E 015°53'  
Track history (hours):
 
Tides and Currents Weather Stations Pressure Air Temp Water Temp Dewpoint Dewpoint Depression Visibility Wind Speed Wind Dir Waves Ship Positions

Sds Green

Last reported at 2015-Sep-04 01:33 UTC. Time now 2015-Sep-05 07:54 UTC.
Position N 41°09' E 002°19'.

Length 108 m; draft 7.3 m.

Type: Cargo ship. MMSI: 247292200.

Date/timePositionNaut miles runAvg speedWind from/ knotsBaromVisibWave heightAir tempDewpointWater temp
2015-Sep-04 01:33N 41°09' E 002°19'1110.9
2015-Sep-04 00:33N 41°01' E 002°28'1110.6
2015-Sep-03 23:33N 40°52' E 002°37'1010.3
2015-Sep-03 22:33N 40°45' E 002°46'1010.4
2015-Sep-03 21:33N 40°37' E 002°55'1110.7
2015-Sep-03 20:33N 40°28' E 003°04'1110.8
2015-Sep-03 19:33N 40°20' E 003°13'3210.8
2015-Sep-03 16:33N 39°55' E 003°40'1210.8
2015-Sep-03 15:27N 39°48' E 003°53'1011.1
2015-Sep-03 14:31N 39°46' E 004°05'20110.9
2015-Sep-02 20:04N 38°50' E 008°16'6 9.5
2015-Sep-02 19:24N 38°48' E 008°23'8 9.7
2015-Sep-02 18:33N 38°47' E 008°34'10 9.8
2015-Sep-02 17:33N 38°45' E 008°46'1010.2
2015-Sep-02 16:33N 38°44' E 008°59'1010.2
2015-Sep-02 15:33N 38°43' E 009°12'1410.4
2015-Sep-02 14:10N 38°40' E 009°30'710.7
2015-Sep-02 13:33N 38°40' E 009°39'1110.8
2015-Sep-02 12:30N 38°38' E 009°53'1010.7
2015-Sep-02 11:33N 38°37' E 010°06'1110.7
2015-Sep-02 10:33N 38°36' E 010°20'1111.0
2015-Sep-02 09:33N 38°34' E 010°33'1111.0
2015-Sep-02 08:33N 38°33' E 010°47'1111.0
2015-Sep-02 07:33N 38°31' E 011°01'1111.1
2015-Sep-02 06:33N 38°30' E 011°15'1111.3
2015-Sep-02 05:33N 38°28' E 011°30'1311.3
2015-Sep-02 04:23N 38°27' E 011°46'3711.1
2015-Sep-02 01:03N 38°22' E 012°33'511.1
2015-Sep-02 00:33N 38°21' E 012°40'1111.1
2015-Sep-01 23:33N 38°19' E 012°54'1111.4
2015-Sep-01 22:33N 38°18' E 013°09'1111.4
2015-Sep-01 21:33N 38°17' E 013°23'1111.2
2015-Sep-01 20:33N 38°18' E 013°37'4611.2
2015-Sep-01 16:23N 38°17' E 014°37'1011.7
2015-Sep-01 15:33N 38°17' E 014°49'1211.6
2015-Sep-01 14:33N 38°17' E 015°04'1211.6
2015-Sep-01 13:33N 38°19' E 015°18'1111.0
2015-Sep-01 12:33N 38°20' E 015°32'8 7.9
2015-Sep-01 11:33N 38°15' E 015°40'8 8.2
2015-Sep-01 10:33N 38°08' E 015°36'1111.0
2015-Sep-01 09:33N 37°57' E 015°38'1211.0
2015-Sep-01 08:28N 37°52' E 015°53'  

Dump ship's entire track history